Attleborough, United Kingdom
Current Conditions -  °F | °C
As of 9:50 AM on Saturday 29 Nov 2014 (Local Time) from EGSH Reporting Station
Broken Clouds Broken Clouds  
Wind Chill: 50°   Ceiling: 800
Heat Index: 50°   Visibility: 4mi
Dew Point: 46°   Wind: 12mph
Humidity: 87%   Direction: 120°ESE
Pressure: 29.88"   Gusts: NA
Location:  52.51°N, 1°E
Report Text: EGSH 290950Z 12010KT 090V170 6000 BKN008 10/08 Q1012 NOSIG
Loading
Personal Weather Stations






























Interactive Weather Map New forecast layout! Learn more

10-Day Weather Forecast

Advertisements
Track Severe Weather on mobile